Time;durP1;ratioP1;P1;durP2;ratioP2;P2;SDS_P1;SDS_P2;PMS_P1;PMS_P2;Temp;Humidity;BMP_temperature;BMP_pressure;BME280_temperature;BME280_humidity;BME280_pressure;Samples;Min_cycle;Max_cycle;Signal;HPM_P1;HPM_P2
2022/01/15 00:01:10;;;;;;;12.67;6.33;;;;;;;;;;6249807;23;20174;-87
2022/01/15 00:03:39;;;;;;;18.67;9.30;;;;;;;;;;6249817;22;20199;-87
2022/01/15 00:06:08;;;;;;;3.50;3.30;;;;;;;;;;6249757;23;20179;-87
2022/01/15 00:08:36;;;;;;;11.80;7.77;;;;;;;;;;6249657;23;20170;-87
2022/01/15 00:11:04;;;;;;;9.50;8.50;;;;;;;;;;6250320;23;20175;-87
2022/01/15 00:13:33;;;;;;;15.87;8.30;;;;;;;;;;6249260;23;20192;-87
2022/01/15 00:16:06;;;;;;;24.03;11.83;;;;;;;;;;6249194;23;20225;-87
2022/01/15 00:18:46;;;;;;;17.87;12.13;;;;;;;;;;6249584;23;20190;-87
2022/01/15 00:21:15;;;;;;;3.83;3.53;;;;;;;;;;6249833;23;20201;-87
2022/01/15 00:23:44;;;;;;;33.30;16.57;;;;;;;;;;6250115;23;20175;-87
2022/01/15 00:26:12;;;;;;;11.50;8.23;;;;;;;;;;6250249;23;20174;-87
2022/01/15 00:28:40;;;;;;;9.47;8.53;;;;;;;;;;6249857;23;20198;-87
2022/01/15 00:31:09;;;;;;;7.90;7.13;;;;;;;;;;6250454;23;20171;-87
2022/01/15 00:33:39;;;;;;;11.30;8.50;;;;;;;;;;6250192;23;20237;-87
2022/01/15 00:36:07;;;;;;;11.20;9.00;;;;;;;;;;6249270;23;20175;-87
2022/01/15 00:38:36;;;;;;;22.80;12.73;;;;;;;;;;6249076;23;20199;-87
2022/01/15 00:41:04;;;;;;;13.97;7.00;;;;;;;;;;6249202;23;20195;-87
2022/01/15 00:43:33;;;;;;;10.20;9.10;;;;;;;;;;6248811;23;20179;-87
2022/01/15 00:46:01;;;;;;;28.33;14.93;;;;;;;;;;6248853;23;20178;-87
2022/01/15 00:48:30;;;;;;;10.17;8.23;;;;;;;;;;6249166;23;20166;-87
2022/01/15 00:51:00;;;;;;;11.23;9.97;;;;;;;;;;6249584;23;20175;-87
2022/01/15 00:53:28;;;;;;;2.53;2.37;;;;;;;;;;6249786;23;20182;-87
2022/01/15 00:55:56;;;;;;;6.33;6.03;;;;;;;;;;6249233;23;20201;-87
2022/01/15 00:58:25;;;;;;;15.83;9.43;;;;;;;;;;6248568;23;20194;-87
2022/01/15 01:00:53;;;;;;;13.87;10.37;;;;;;;;;;6249859;23;20186;-87
2022/01/15 01:03:22;;;;;;;40.77;21.73;;;;;;;;;;6249367;22;20195;-87
2022/01/15 01:05:50;;;;;;;18.67;6.50;;;;;;;;;;6249183;23;20191;-87
2022/01/15 01:08:20;;;;;;;31.47;15.93;;;;;;;;;;6249455;23;20170;-87
2022/01/15 01:10:52;;;;;;;12.07;6.27;;;;;;;;;;6248781;23;20178;-86
2022/01/15 01:24:38;;;;;;;22.77;9.20;;;;;;;;;;6248898;23;20223;-86
2022/01/15 01:27:12;;;;;;;19.87;11.93;;;;;;;;;;6248900;23;20165;-86
2022/01/15 01:29:52;;;;;;;20.63;14.10;;;;;;;;;;6248511;23;20170;-87
2022/01/15 01:32:42;;;;;;;26.00;10.67;;;;;;;;;;6247897;23;20205;-86
2022/01/15 01:35:15;;;;;;;14.33;10.63;;;;;;;;;;6249264;23;20173;-86
2022/01/15 01:37:48;;;;;;;5.53;5.03;;;;;;;;;;6248928;23;20252;-86
2022/01/15 01:40:25;;;;;;;15.73;7.50;;;;;;;;;;6248955;23;20215;-87
2022/01/15 01:43:03;;;;;;;13.50;8.53;;;;;;;;;;6248504;23;20232;-87
2022/01/15 01:45:32;;;;;;;25.57;12.90;;;;;;;;;;6249250;23;20211;-87
2022/01/15 01:48:00;;;;;;;19.73;9.53;;;;;;;;;;6248530;23;20174;-87
2022/01/15 01:50:30;;;;;;;34.23;15.90;;;;;;;;;;6248151;23;20209;-87
2022/01/15 01:52:59;;;;;;;22.13;12.87;;;;;;;;;;6248581;23;20177;-87
2022/01/15 01:55:29;;;;;;;14.30;9.13;;;;;;;;;;6248793;23;20174;-87
2022/01/15 01:57:59;;;;;;;13.93;9.37;;;;;;;;;;6248701;23;20168;-87
2022/01/15 02:00:29;;;;;;;32.73;14.57;;;;;;;;;;6248230;23;20256;-86
2022/01/15 02:02:58;;;;;;;26.27;12.27;;;;;;;;;;6248392;22;20216;-86
2022/01/15 02:05:27;;;;;;;18.57;7.57;;;;;;;;;;6248676;23;20177;-86
2022/01/15 02:07:55;;;;;;;20.40;8.17;;;;;;;;;;6248300;23;20174;-87
2022/01/15 02:10:23;;;;;;;14.53;8.10;;;;;;;;;;6248509;23;20174;-87
2022/01/15 02:12:55;;;;;;;30.63;13.90;;;;;;;;;;6248481;23;20169;-86
2022/01/15 02:15:24;;;;;;;18.23;11.03;;;;;;;;;;6248235;23;20174;-86
2022/01/15 02:17:53;;;;;;;30.03;10.97;;;;;;;;;;6247845;23;20181;-87
2022/01/15 02:21:00;;;;;;;20.40;8.87;;;;;;;;;;6247740;23;20193;-86
2022/01/15 02:23:35;;;;;;;23.63;8.97;;;;;;;;;;6247484;23;20170;-86
2022/01/15 02:26:05;;;;;;;24.60;9.87;;;;;;;;;;6248313;23;20172;-87
2022/01/15 02:28:34;;;;;;;23.27;8.63;;;;;;;;;;6247842;23;20169;-87
2022/01/15 02:31:04;;;;;;;28.20;11.43;;;;;;;;;;6247721;23;20224;-87
2022/01/15 02:33:33;;;;;;;22.00;8.93;;;;;;;;;;6248474;23;20169;-87
2022/01/15 02:36:03;;;;;;;10.83;5.37;;;;;;;;;;6247477;23;20228;-87
2022/01/15 02:38:31;;;;;;;4.13;3.57;;;;;;;;;;6247590;23;20197;-87
2022/01/15 02:40:59;;;;;;;10.27;6.73;;;;;;;;;;6247882;23;20174;-86
2022/01/15 02:43:31;;;;;;;13.77;7.47;;;;;;;;;;6247753;23;20189;-87
2022/01/15 02:46:18;;;;;;;8.33;5.80;;;;;;;;;;6247906;23;20170;-86
2022/01/15 02:48:47;;;;;;;5.60;4.27;;;;;;;;;;6247318;23;20214;-86
2022/01/15 02:51:18;;;;;;;18.07;8.97;;;;;;;;;;6247584;23;20180;-87
2022/01/15 02:53:46;;;;;;;11.23;5.53;;;;;;;;;;6247596;23;20166;-87
2022/01/15 02:56:15;;;;;;;10.17;5.40;;;;;;;;;;6248064;23;20181;-86
2022/01/15 02:58:43;;;;;;;12.63;5.93;;;;;;;;;;6247689;23;20198;-86
2022/01/15 03:01:12;;;;;;;15.50;4.67;;;;;;;;;;6247598;23;20181;-87
2022/01/15 03:03:40;;;;;;;5.00;3.10;;;;;;;;;;6247834;22;20193;-86
2022/01/15 03:06:11;;;;;;;5.13;4.27;;;;;;;;;;6247879;23;20174;-86
2022/01/15 03:08:41;;;;;;;14.93;7.90;;;;;;;;;;6247410;23;20203;-87
2022/01/15 03:11:10;;;;;;;5.23;3.67;;;;;;;;;;6247314;23;20180;-86
2022/01/15 03:13:39;;;;;;;3.37;3.17;;;;;;;;;;6247247;23;20174;-86
2022/01/15 03:16:08;;;;;;;11.97;4.37;;;;;;;;;;6247628;23;20176;-86
2022/01/15 03:18:37;;;;;;;13.07;5.67;;;;;;;;;;6247052;23;20189;-87
2022/01/15 03:21:05;;;;;;;13.03;5.63;;;;;;;;;;6248923;23;20176;-86
2022/01/15 03:23:33;;;;;;;4.27;3.83;;;;;;;;;;6249490;23;20174;-86
2022/01/15 03:26:03;;;;;;;9.00;4.90;;;;;;;;;;6248961;23;20181;-86
2022/01/15 03:28:32;;;;;;;11.50;5.30;;;;;;;;;;6249404;23;20177;-86
2022/01/15 03:31:00;;;;;;;9.70;6.73;;;;;;;;;;6249809;23;20170;-87
2022/01/15 03:33:29;;;;;;;8.20;4.40;;;;;;;;;;6248773;23;20177;-87
2022/01/15 03:35:57;;;;;;;10.37;4.57;;;;;;;;;;6249394;23;20174;-87
2022/01/15 03:38:26;;;;;;;10.73;5.50;;;;;;;;;;6248976;23;20173;-86
2022/01/15 03:40:54;;;;;;;12.03;6.40;;;;;;;;;;6249394;23;20213;-87
2022/01/15 03:43:24;;;;;;;13.37;6.77;;;;;;;;;;6249181;23;20173;-86
2022/01/15 03:45:53;;;;;;;8.40;4.70;;;;;;;;;;6249177;23;20166;-86
2022/01/15 03:48:22;;;;;;;5.37;3.27;;;;;;;;;;6249234;23;20180;-86
2022/01/15 03:50:50;;;;;;;6.97;3.50;;;;;;;;;;6249142;23;20221;-87
2022/01/15 03:53:20;;;;;;;4.53;3.43;;;;;;;;;;6249854;23;20223;-87
2022/01/15 03:55:48;;;;;;;13.93;5.00;;;;;;;;;;6249332;23;20224;-86
2022/01/15 03:58:17;;;;;;;14.40;6.63;;;;;;;;;;6248912;23;20173;-86
2022/01/15 04:00:47;;;;;;;10.63;6.30;;;;;;;;;;6248623;23;20224;-86
2022/01/15 04:03:16;;;;;;;8.37;5.13;;;;;;;;;;6249647;22;20200;-86
2022/01/15 04:05:44;;;;;;;14.23;7.77;;;;;;;;;;6248578;23;20253;-86
2022/01/15 04:08:12;;;;;;;14.10;6.13;;;;;;;;;;6248648;23;20235;-86
2022/01/15 04:10:42;;;;;;;10.27;5.97;;;;;;;;;;6248524;23;20166;-86
2022/01/15 04:13:11;;;;;;;17.07;9.00;;;;;;;;;;6248804;23;20177;-86
2022/01/15 04:15:40;;;;;;;8.67;5.43;;;;;;;;;;6248757;23;20197;-87
2022/01/15 04:18:10;;;;;;;15.80;6.87;;;;;;;;;;6249030;23;20231;-86
2022/01/15 04:20:38;;;;;;;6.17;4.50;;;;;;;;;;6249167;23;20190;-87
2022/01/15 04:23:07;;;;;;;10.30;4.80;;;;;;;;;;6248767;23;20174;-86
2022/01/15 04:25:35;;;;;;;8.60;5.20;;;;;;;;;;6248647;23;20233;-87
2022/01/15 04:28:08;;;;;;;15.30;8.27;;;;;;;;;;6249009;23;20174;-86
2022/01/15 04:30:37;;;;;;;9.87;4.90;;;;;;;;;;6249140;23;20192;-86
2022/01/15 04:33:05;;;;;;;14.17;5.80;;;;;;;;;;6248754;23;20231;-86
2022/01/15 04:35:35;;;;;;;13.40;7.50;;;;;;;;;;6248402;23;20219;-87
2022/01/15 04:38:07;;;;;;;14.33;6.67;;;;;;;;;;6249091;23;20194;-87
2022/01/15 04:40:36;;;;;;;16.87;9.17;;;;;;;;;;6248465;23;20209;-86
2022/01/15 04:43:04;;;;;;;15.07;7.57;;;;;;;;;;6248800;23;20174;-86
2022/01/15 04:45:32;;;;;;;16.80;7.53;;;;;;;;;;6248840;23;20181;-86
2022/01/15 04:48:01;;;;;;;30.03;8.20;;;;;;;;;;6248318;23;20178;-86
2022/01/15 04:50:29;;;;;;;21.33;9.43;;;;;;;;;;6248488;23;20198;-86
2022/01/15 04:52:59;;;;;;;21.23;11.53;;;;;;;;;;6248450;23;20284;-87
2022/01/15 04:55:28;;;;;;;12.17;7.87;;;;;;;;;;6248554;23;20217;-86
2022/01/15 04:57:56;;;;;;;20.93;8.83;;;;;;;;;;6248415;23;20174;-86
2022/01/15 05:00:24;;;;;;;25.53;11.33;;;;;;;;;;6248229;23;20190;-87
2022/01/15 05:02:53;;;;;;;14.40;8.73;;;;;;;;;;6248591;22;20194;-86
2022/01/15 05:05:21;;;;;;;11.63;6.10;;;;;;;;;;6248567;23;20228;-86
2022/01/15 05:07:51;;;;;;;18.03;9.27;;;;;;;;;;6248264;23;20228;-87
2022/01/15 05:10:25;;;;;;;11.77;7.17;;;;;;;;;;6248094;23;20170;-86
2022/01/15 05:12:56;;;;;;;16.80;7.33;;;;;;;;;;6248035;23;20197;-87
2022/01/15 05:15:24;;;;;;;24.37;13.30;;;;;;;;;;6248356;23;20196;-86
2022/01/15 05:17:53;;;;;;;9.23;5.77;;;;;;;;;;6248089;23;20230;-86
2022/01/15 05:20:22;;;;;;;6.87;6.07;;;;;;;;;;6249097;23;20190;-87
2022/01/15 05:22:51;;;;;;;29.47;11.27;;;;;;;;;;6247752;23;20174;-87
2022/01/15 05:25:19;;;;;;;16.23;9.37;;;;;;;;;;6248005;23;20178;-86
2022/01/15 05:27:51;;;;;;;28.53;13.07;;;;;;;;;;6248021;23;20174;-86
2022/01/15 05:30:20;;;;;;;29.83;11.83;;;;;;;;;;6248371;23;20252;-86
2022/01/15 05:32:48;;;;;;;23.87;12.53;;;;;;;;;;6248155;23;20173;-87
2022/01/15 05:35:16;;;;;;;19.37;9.53;;;;;;;;;;6248241;23;20173;-86
2022/01/15 05:37:45;;;;;;;24.50;10.60;;;;;;;;;;6247763;23;20197;-86
2022/01/15 05:40:14;;;;;;;16.83;9.10;;;;;;;;;;6247695;23;20220;-86
2022/01/15 05:42:42;;;;;;;30.77;14.27;;;;;;;;;;6247866;23;20184;-86
2022/01/15 05:45:13;;;;;;;12.20;7.70;;;;;;;;;;6247659;23;20220;-86
2022/01/15 05:47:42;;;;;;;31.77;12.73;;;;;;;;;;6248302;23;20174;-86
2022/01/15 05:50:11;;;;;;;28.30;12.37;;;;;;;;;;6247763;23;20209;-86
2022/01/15 05:52:40;;;;;;;33.33;13.17;;;;;;;;;;6247746;23;20174;-86
2022/01/15 05:55:09;;;;;;;41.37;13.63;;;;;;;;;;6247757;23;20216;-86
2022/01/15 05:57:37;;;;;;;26.67;10.20;;;;;;;;;;6247607;23;20243;-87
2022/01/15 06:00:06;;;;;;;31.33;12.37;;;;;;;;;;6248040;23;20204;-87
2022/01/15 06:02:36;;;;;;;49.23;14.83;;;;;;;;;;6247527;22;20193;-87
2022/01/15 06:05:05;;;;;;;7.97;6.10;;;;;;;;;;6247560;23;20174;-86
2022/01/15 06:07:33;;;;;;;11.30;9.07;;;;;;;;;;6247385;23;20177;-86
2022/01/15 06:10:01;;;;;;;60.67;14.17;;;;;;;;;;6247471;23;20228;-86
2022/01/15 06:12:32;;;;;;;37.20;15.00;;;;;;;;;;6247212;23;20173;-86
2022/01/15 06:15:00;;;;;;;22.00;11.70;;;;;;;;;;6248028;23;20174;-86
2022/01/15 06:17:29;;;;;;;37.13;13.67;;;;;;;;;;6247726;23;20173;-86
2022/01/15 06:19:58;;;;;;;80.53;17.40;;;;;;;;;;6247882;23;20208;-86
2022/01/15 06:22:27;;;;;;;72.67;19.77;;;;;;;;;;6247770;23;20194;-86
2022/01/15 06:24:55;;;;;;;57.83;16.63;;;;;;;;;;6247154;23;20180;-86
2022/01/15 06:27:28;;;;;;;53.50;16.10;;;;;;;;;;6248173;23;20158;-86
2022/01/15 06:29:57;;;;;;;36.57;13.87;;;;;;;;;;6247512;23;20170;-86
2022/01/15 06:32:25;;;;;;;39.43;12.50;;;;;;;;;;6248044;23;20166;-86
2022/01/15 06:34:54;;;;;;;52.40;10.57;;;;;;;;;;6247723;23;20174;-86
2022/01/15 06:37:23;;;;;;;70.67;17.93;;;;;;;;;;6247523;23;20177;-86
2022/01/15 06:39:52;;;;;;;87.17;16.60;;;;;;;;;;6247107;23;20174;-86
2022/01/15 06:42:20;;;;;;;86.90;15.37;;;;;;;;;;6249697;23;20190;-86
2022/01/15 06:44:49;;;;;;;58.90;16.03;;;;;;;;;;6251847;23;20174;-86
2022/01/15 06:47:18;;;;;;;75.43;17.50;;;;;;;;;;6251167;23;20196;-87
2022/01/15 06:49:46;;;;;;;26.40;7.23;;;;;;;;;;6252032;23;20209;-87
2022/01/15 06:52:15;;;;;;;14.53;7.80;;;;;;;;;;6252870;23;20173;-87
2022/01/15 06:54:45;;;;;;;46.27;14.30;;;;;;;;;;6252662;23;20174;-87
2022/01/15 06:57:13;;;;;;;62.37;14.37;;;;;;;;;;6253791;23;20177;-86
2022/01/15 06:59:44;;;;;;;61.80;15.07;;;;;;;;;;6253384;23;20174;-87
2022/01/15 07:02:12;;;;;;;79.43;13.50;;;;;;;;;;6252329;23;20285;-87
2022/01/15 07:04:41;;;;;;;69.13;13.13;;;;;;;;;;6252541;23;20173;-86
2022/01/15 07:07:10;;;;;;;39.43;10.27;;;;;;;;;;6253088;23;20181;-87
2022/01/15 07:09:38;;;;;;;39.03;9.73;;;;;;;;;;6253536;23;20181;-86
2022/01/15 07:12:09;;;;;;;55.10;11.63;;;;;;;;;;6253275;23;20169;-87
2022/01/15 07:14:37;;;;;;;66.17;12.20;;;;;;;;;;6253816;23;20173;-86
2022/01/15 07:17:06;;;;;;;65.73;14.87;;;;;;;;;;6253124;23;20196;-87
2022/01/15 07:19:35;;;;;;;96.73;18.47;;;;;;;;;;6253779;23;20228;-86
2022/01/15 07:22:03;;;;;;;80.60;10.57;;;;;;;;;;6253473;23;20198;-87
2022/01/15 07:24:31;;;;;;;49.03;11.60;;;;;;;;;;6253423;23;20200;-87
2022/01/15 07:27:00;;;;;;;29.80;8.90;;;;;;;;;;6254313;23;20239;-87
2022/01/15 07:29:31;;;;;;;48.37;10.70;;;;;;;;;;6254057;23;20188;-87
2022/01/15 07:31:59;;;;;;;10.97;6.57;;;;;;;;;;6253705;23;20215;-87
2022/01/15 07:34:27;;;;;;;13.23;5.17;;;;;;;;;;6253426;23;20178;-87
2022/01/15 07:36:58;;;;;;;58.37;11.30;;;;;;;;;;6253905;23;20174;-87
2022/01/15 07:39:26;;;;;;;90.80;13.97;;;;;;;;;;6253915;23;20165;-87
2022/01/15 07:41:56;;;;;;;51.37;12.63;;;;;;;;;;6253592;23;20193;-86
2022/01/15 07:44:27;;;;;;;51.97;12.83;;;;;;;;;;6253942;23;20173;-87
2022/01/15 07:46:57;;;;;;;22.77;6.50;;;;;;;;;;6242354;23;20173;-87
2022/01/15 07:49:25;;;;;;;49.13;11.43;;;;;;;;;;6253993;23;20202;-87
2022/01/15 07:51:54;;;;;;;78.60;13.27;;;;;;;;;;6254768;23;20170;-87
2022/01/15 07:54:22;;;;;;;46.30;10.50;;;;;;;;;;6254854;23;20174;-87
2022/01/15 07:56:54;;;;;;;60.20;7.80;;;;;;;;;;6253889;23;20181;-87
2022/01/15 07:59:23;;;;;;;99.40;10.97;;;;;;;;;;6253025;23;20166;-87
2022/01/15 08:01:52;;;;;;;39.57;8.80;;;;;;;;;;6252122;23;20190;-86
2022/01/15 08:04:22;;;;;;;212.33;36.63;;;;;;;;;;6251986;22;20228;-87
2022/01/15 08:06:50;;;;;;;81.33;15.10;;;;;;;;;;6254417;23;20181;-87
2022/01/15 08:09:19;;;;;;;155.40;21.53;;;;;;;;;;6254502;23;20178;-86
2022/01/15 08:11:47;;;;;;;174.70;28.27;;;;;;;;;;6254614;23;20223;-87
2022/01/15 08:14:15;;;;;;;188.53;31.80;;;;;;;;;;6254921;23;20204;-87
2022/01/15 08:16:44;;;;;;;212.47;31.13;;;;;;;;;;6254788;23;20204;-87
2022/01/15 08:19:12;;;;;;;87.90;13.77;;;;;;;;;;6254995;23;20227;-87
2022/01/15 08:21:42;;;;;;;4.13;3.80;;;;;;;;;;6254080;23;20513;-87
2022/01/15 08:24:11;;;;;;;56.30;13.93;;;;;;;;;;6253789;23;20166;-87
2022/01/15 08:26:40;;;;;;;18.50;5.10;;;;;;;;;;6253208;23;20228;-87
2022/01/15 08:29:09;;;;;;;10.57;4.73;;;;;;;;;;6253462;23;20204;-87
2022/01/15 08:31:37;;;;;;;34.93;7.80;;;;;;;;;;6253301;23;20174;-87
2022/01/15 08:34:10;;;;;;;93.30;13.83;;;;;;;;;;6254260;23;20165;-86
2022/01/15 08:36:38;;;;;;;86.57;15.37;;;;;;;;;;6253529;23;20197;-87
2022/01/15 08:39:09;;;;;;;40.33;10.17;;;;;;;;;;6253734;23;20181;-87
2022/01/15 08:41:38;;;;;;;51.83;8.37;;;;;;;;;;6253050;23;20174;-87
2022/01/15 08:44:06;;;;;;;74.23;15.13;;;;;;;;;;6253626;23;20182;-87
2022/01/15 08:46:35;;;;;;;103.03;20.77;;;;;;;;;;6254025;23;20178;-87
2022/01/15 08:49:04;;;;;;;43.73;8.87;;;;;;;;;;6253694;23;20227;-87
2022/01/15 08:51:32;;;;;;;55.00;15.20;;;;;;;;;;6253217;23;20169;-87
2022/01/15 08:54:00;;;;;;;62.00;10.93;;;;;;;;;;6253570;23;20248;-87
2022/01/15 08:56:30;;;;;;;127.93;24.03;;;;;;;;;;6254562;23;20180;-87
2022/01/15 08:58:59;;;;;;;21.57;6.63;;;;;;;;;;6254010;23;20173;-87
2022/01/15 09:01:27;;;;;;;39.20;7.07;;;;;;;;;;6254077;23;20174;-86
2022/01/15 09:03:57;;;;;;;71.47;15.37;;;;;;;;;;6239949;23;20284;-87
2022/01/15 09:06:27;;;;;;;33.30;7.50;;;;;;;;;;6253408;23;20178;-83
2022/01/15 09:08:55;;;;;;;9.20;5.33;;;;;;;;;;6253391;23;20257;-87
2022/01/15 09:11:24;;;;;;;92.90;12.87;;;;;;;;;;6253797;23;20197;-87
2022/01/15 09:13:54;;;;;;;72.77;8.23;;;;;;;;;;6252835;23;20169;-87
2022/01/15 09:16:23;;;;;;;7.73;6.93;;;;;;;;;;6252968;23;20173;-87
2022/01/15 09:18:52;;;;;;;32.63;9.33;;;;;;;;;;6252961;23;20252;-87
2022/01/15 09:21:20;;;;;;;72.13;13.40;;;;;;;;;;6252917;23;20174;-87
2022/01/15 09:23:49;;;;;;;66.87;11.33;;;;;;;;;;6252940;23;20278;-86
2022/01/15 09:26:22;;;;;;;47.70;11.90;;;;;;;;;;6252684;23;20174;-87
2022/01/15 09:31:39;;;;;;;33.33;7.80;;;;;;;;;;6252757;23;20170;-87
2022/01/15 09:34:08;;;;;;;9.83;6.60;;;;;;;;;;6252969;23;20192;-88
2022/01/15 09:36:36;;;;;;;36.73;14.37;;;;;;;;;;6252752;23;20182;-88
2022/01/15 09:39:05;;;;;;;6.90;4.30;;;;;;;;;;6253338;23;20228;-85
2022/01/15 09:41:34;;;;;;;43.30;14.83;;;;;;;;;;6252205;23;20232;-87
2022/01/15 09:44:03;;;;;;;111.17;29.03;;;;;;;;;;6253632;23;20190;-86
2022/01/15 09:46:33;;;;;;;33.00;7.30;;;;;;;;;;6253348;23;20180;-87
2022/01/15 09:49:03;;;;;;;10.60;4.03;;;;;;;;;;6252827;23;20174;-87
2022/01/15 09:51:31;;;;;;;25.73;9.83;;;;;;;;;;6253181;23;20166;-86
2022/01/15 09:54:00;;;;;;;42.57;17.27;;;;;;;;;;6252470;23;20165;-87
2022/01/15 09:56:29;;;;;;;27.00;8.93;;;;;;;;;;6252980;23;20200;-87
2022/01/15 09:58:58;;;;;;;29.83;12.73;;;;;;;;;;6253059;23;20173;-87
2022/01/15 10:01:28;;;;;;;25.90;10.00;;;;;;;;;;6253843;23;20189;-86
2022/01/15 10:03:57;;;;;;;43.13;16.00;;;;;;;;;;6253619;22;20268;-87
2022/01/15 10:06:27;;;;;;;83.33;19.33;;;;;;;;;;6252920;23;20177;-86
2022/01/15 10:09:00;;;;;;;33.20;12.10;;;;;;;;;;6240812;23;20253;-87
2022/01/15 10:11:42;;;;;;;6.40;4.63;;;;;;;;;;6252643;23;20228;-87
2022/01/15 10:14:28;;;;;;;45.53;15.63;;;;;;;;;;6252659;23;20174;-87
2022/01/15 10:16:57;;;;;;;55.80;19.27;;;;;;;;;;6241203;23;20222;-87
2022/01/15 10:19:27;;;;;;;47.63;16.00;;;;;;;;;;6252978;23;20174;-87
2022/01/15 10:22:13;;;;;;;37.63;16.10;;;;;;;;;;6252555;23;20244;-88
2022/01/15 10:24:42;;;;;;;34.57;13.60;;;;;;;;;;6252762;23;20189;-88
2022/01/15 10:27:25;;;;;;;12.57;6.73;;;;;;;;;;6252183;23;20181;-88
2022/01/15 10:29:55;;;;;;;46.70;14.23;;;;;;;;;;6252970;23;20169;-88
2022/01/15 10:32:24;;;;;;;15.90;6.87;;;;;;;;;;6252879;23;20173;-88
2022/01/15 10:34:52;;;;;;;9.07;5.63;;;;;;;;;;6252649;23;20177;-87
2022/01/15 10:37:24;;;;;;;1.67;1.57;;;;;;;;;;6252585;23;20170;-87
2022/01/15 10:40:00;;;;;;;18.20;6.97;;;;;;;;;;6252990;23;20196;-88
2022/01/15 10:42:28;;;;;;;19.87;10.57;;;;;;;;;;6253824;23;20223;-88
2022/01/15 10:44:58;;;;;;;41.27;18.17;;;;;;;;;;6252599;23;20213;-88
2022/01/15 10:47:27;;;;;;;92.17;21.07;;;;;;;;;;6252594;23;20173;-88
2022/01/15 10:50:01;;;;;;;105.47;30.67;;;;;;;;;;6252309;23;20228;-88
2022/01/15 10:52:31;;;;;;;43.00;15.53;;;;;;;;;;6252219;23;20180;-88
2022/01/15 10:55:03;;;;;;;21.57;7.70;;;;;;;;;;6252462;23;20177;-88
2022/01/15 10:57:33;;;;;;;83.27;27.07;;;;;;;;;;6252257;23;20170;-88
2022/01/15 11:00:09;;;;;;;15.33;8.43;;;;;;;;;;6252546;23;20174;-87
2022/01/15 11:02:37;;;;;;;45.47;18.10;;;;;;;;;;6252182;22;20197;-87
2022/01/15 11:05:21;;;;;;;67.87;25.43;;;;;;;;;;6253228;23;20196;-88
2022/01/15 11:07:51;;;;;;;47.93;21.63;;;;;;;;;;6252373;23;20169;-88
2022/01/15 11:10:19;;;;;;;76.27;31.10;;;;;;;;;;6252775;23;20173;-88
2022/01/15 11:12:48;;;;;;;66.53;23.67;;;;;;;;;;6252559;23;20178;-87
2022/01/15 11:15:16;;;;;;;37.57;14.57;;;;;;;;;;6252782;23;20174;-88
2022/01/15 11:17:45;;;;;;;63.00;27.40;;;;;;;;;;6252917;23;20177;-87
2022/01/15 11:20:17;;;;;;;71.27;25.70;;;;;;;;;;6252833;23;20197;-88
2022/01/15 11:22:45;;;;;;;84.33;34.43;;;;;;;;;;6252813;23;20169;-88
2022/01/15 11:25:15;;;;;;;66.00;26.43;;;;;;;;;;6252435;23;20194;-87
2022/01/15 11:27:44;;;;;;;56.30;22.60;;;;;;;;;;6252705;23;20173;-88
2022/01/15 11:30:12;;;;;;;66.73;20.70;;;;;;;;;;6253251;23;20174;-88
2022/01/15 11:32:43;;;;;;;94.77;37.80;;;;;;;;;;6252801;23;20169;-87
2022/01/15 11:35:13;;;;;;;87.57;32.07;;;;;;;;;;6252427;23;20170;-88
2022/01/15 11:37:43;;;;;;;75.53;30.27;;;;;;;;;;6252130;23;20181;-88
2022/01/15 11:40:26;;;;;;;98.23;35.77;;;;;;;;;;6252340;23;20174;-87
2022/01/15 11:42:56;;;;;;;79.60;28.03;;;;;;;;;;6251137;23;20173;-87
2022/01/15 11:45:39;;;;;;;88.27;29.30;;;;;;;;;;6254082;23;20190;-88
2022/01/15 11:48:21;;;;;;;90.70;40.80;;;;;;;;;;6254311;23;20170;-88
2022/01/15 11:51:22;;;;;;;82.47;37.27;;;;;;;;;;6254607;23;20205;-87
2022/01/15 11:53:53;;;;;;;65.70;26.63;;;;;;;;;;6254469;23;20172;-87
2022/01/15 11:56:23;;;;;;;80.47;40.73;;;;;;;;;;6254673;23;20201;-88
2022/01/15 11:58:55;;;;;;;58.57;27.20;;;;;;;;;;6254429;23;20174;-87
2022/01/15 12:01:37;;;;;;;65.70;35.10;;;;;;;;;;6254553;23;20170;-88
2022/01/15 12:04:25;;;;;;;42.17;20.03;;;;;;;;;;6253816;22;20212;-88
2022/01/15 12:07:12;;;;;;;64.73;29.73;;;;;;;;;;6254261;23;20173;-87
2022/01/15 12:09:41;;;;;;;43.57;19.13;;;;;;;;;;6254384;23;20170;-87
2022/01/15 12:12:30;;;;;;;58.10;28.73;;;;;;;;;;6254150;23;20174;-87
2022/01/15 12:15:01;;;;;;;65.73;32.67;;;;;;;;;;6253773;23;20170;-88
2022/01/15 12:17:31;;;;;;;69.23;39.47;;;;;;;;;;6254221;23;20166;-88
2022/01/15 12:20:00;;;;;;;45.73;22.10;;;;;;;;;;6252930;23;20185;-88
2022/01/15 12:22:35;;;;;;;39.07;17.57;;;;;;;;;;6254023;23;20189;-88
2022/01/15 12:25:04;;;;;;;41.17;21.27;;;;;;;;;;6253463;23;20213;-88
2022/01/15 12:27:33;;;;;;;49.27;24.87;;;;;;;;;;6253885;23;20173;-88
2022/01/15 12:30:07;;;;;;;52.23;25.13;;;;;;;;;;6254327;23;20200;-88
2022/01/15 12:32:38;;;;;;;44.80;25.83;;;;;;;;;;6254340;23;20162;-87
2022/01/15 12:35:10;;;;;;;17.80;11.70;;;;;;;;;;6254774;23;20164;-87
2022/01/15 12:37:51;;;;;;;51.77;30.10;;;;;;;;;;6254170;23;20184;-88
2022/01/15 12:40:20;;;;;;;50.47;26.43;;;;;;;;;;6254522;23;20173;-88
2022/01/15 12:42:55;;;;;;;47.83;30.20;;;;;;;;;;6254466;23;20181;-87
2022/01/15 12:45:25;;;;;;;37.20;21.13;;;;;;;;;;6254467;23;20185;-85
2022/01/15 12:47:54;;;;;;;51.90;25.73;;;;;;;;;;6254655;23;20174;-86
2022/01/15 12:50:23;;;;;;;26.90;14.07;;;;;;;;;;6254254;23;20240;-87
2022/01/15 12:52:59;;;;;;;39.87;25.47;;;;;;;;;;6253583;23;20173;-86
2022/01/15 12:55:32;;;;;;;43.33;26.47;;;;;;;;;;6254249;23;20170;-86
2022/01/15 12:58:00;;;;;;;46.23;29.50;;;;;;;;;;6254466;23;20174;-86
2022/01/15 13:00:31;;;;;;;47.53;29.27;;;;;;;;;;6253633;23;20228;-86
2022/01/15 13:03:00;;;;;;;52.57;31.93;;;;;;;;;;6241775;22;20202;-86
2022/01/15 13:05:30;;;;;;;15.47;7.87;;;;;;;;;;6253420;23;20190;-86
2022/01/15 13:07:59;;;;;;;39.13;24.30;;;;;;;;;;6253790;23;20174;-86
2022/01/15 13:10:49;;;;;;;37.37;20.50;;;;;;;;;;6253573;23;20178;-86
2022/01/15 13:13:18;;;;;;;34.50;19.70;;;;;;;;;;6253425;23;20219;-86
2022/01/15 13:15:48;;;;;;;47.23;26.73;;;;;;;;;;6254502;23;20174;-86
2022/01/15 13:18:17;;;;;;;12.57;7.17;;;;;;;;;;6253979;23;20174;-86
2022/01/15 13:20:50;;;;;;;27.17;15.53;;;;;;;;;;6253886;23;20174;-86
2022/01/15 13:23:20;;;;;;;27.30;16.03;;;;;;;;;;6253011;23;20169;-86
2022/01/15 13:25:49;;;;;;;33.17;20.03;;;;;;;;;;6253473;23;20247;-86
2022/01/15 13:28:17;;;;;;;34.80;22.83;;;;;;;;;;6254169;23;20228;-86
2022/01/15 13:30:51;;;;;;;29.67;15.17;;;;;;;;;;6254451;23;20178;-86
2022/01/15 13:33:19;;;;;;;31.97;20.97;;;;;;;;;;6253505;23;20196;-86
2022/01/15 13:35:48;;;;;;;39.20;25.23;;;;;;;;;;6254092;23;20224;-86
2022/01/15 13:38:18;;;;;;;35.67;23.87;;;;;;;;;;6254190;23;20200;-85
2022/01/15 13:40:48;;;;;;;29.30;15.23;;;;;;;;;;6253660;23;20178;-86
2022/01/15 13:43:25;;;;;;;29.57;18.03;;;;;;;;;;6254168;23;20191;-86
2022/01/15 13:46:05;;;;;;;16.43;10.43;;;;;;;;;;6254192;23;20190;-86
2022/01/15 13:48:34;;;;;;;18.20;9.53;;;;;;;;;;6252926;23;20220;-86
2022/01/15 13:53:51;;;;;;;15.17;9.03;;;;;;;;;;6254029;23;20196;-86
2022/01/15 13:56:20;;;;;;;24.43;15.87;;;;;;;;;;6253678;23;20170;-86
2022/01/15 13:58:49;;;;;;;29.37;15.60;;;;;;;;;;6254473;23;20204;-86
2022/01/15 14:01:23;;;;;;;13.40;8.27;;;;;;;;;;6253867;23;20200;-86
2022/01/15 14:03:52;;;;;;;29.80;17.93;;;;;;;;;;6253982;22;20197;-86
2022/01/15 14:06:21;;;;;;;30.47;15.13;;;;;;;;;;6253868;23;20221;-86
2022/01/15 14:08:59;;;;;;;34.70;19.13;;;;;;;;;;6253924;23;20229;-86
2022/01/15 14:11:28;;;;;;;20.40;10.97;;;;;;;;;;6253687;23;20262;-86
2022/01/15 14:14:07;;;;;;;33.30;20.40;;;;;;;;;;6253475;23;20220;-86
2022/01/15 14:16:42;;;;;;;26.43;14.67;;;;;;;;;;6253522;23;20170;-86
2022/01/15 14:21:57;;;;;;;29.07;14.70;;;;;;;;;;6253542;23;20239;-86
2022/01/15 14:24:26;;;;;;;28.20;11.30;;;;;;;;;;6254072;23;20240;-86
2022/01/15 14:26:57;;;;;;;17.77;11.30;;;;;;;;;;6253420;23;20180;-86
2022/01/15 14:29:26;;;;;;;35.87;20.87;;;;;;;;;;6253416;23;20173;-86
2022/01/15 14:31:58;;;;;;;24.77;13.00;;;;;;;;;;6253911;23;20240;-86
2022/01/15 14:34:27;;;;;;;28.77;15.93;;;;;;;;;;6253726;23;20166;-86
2022/01/15 14:36:56;;;;;;;25.70;15.40;;;;;;;;;;6253818;23;20169;-86
2022/01/15 14:39:24;;;;;;;23.07;14.30;;;;;;;;;;6253291;23;20181;-86
2022/01/15 14:41:52;;;;;;;32.13;20.33;;;;;;;;;;6253517;23;20231;-86
2022/01/15 14:44:21;;;;;;;32.83;20.33;;;;;;;;;;6253566;23;20223;-86
2022/01/15 14:46:49;;;;;;;23.20;12.83;;;;;;;;;;6253677;23;20198;-86
2022/01/15 14:49:19;;;;;;;11.50;7.20;;;;;;;;;;6253463;23;20178;-86
2022/01/15 14:51:48;;;;;;;23.93;5.43;;;;;;;;;;6253403;23;20203;-86
2022/01/15 14:54:16;;;;;;;27.77;17.57;;;;;;;;;;6253513;23;20209;-86
2022/01/15 14:56:44;;;;;;;20.03;11.27;;;;;;;;;;6253178;23;20166;-86
2022/01/15 14:59:13;;;;;;;27.23;14.30;;;;;;;;;;6253170;23;20184;-86
2022/01/15 15:01:41;;;;;;;12.10;8.13;;;;;;;;;;6253989;23;20233;-86